Ferry Katsuragi — JI3611 — position and weather

sailwx.info

Track history (hours):
 
Tides and Currents Weather Stations Pressure Air Temp Water Temp Dewpoint Dewpoint Depression Visibility Wind Speed Wind Dir Waves Ship Positions

Ferry Katsuragi

Last reported at 2015-Mar-29 19:12 UTC. Time now 2015-Mar-29 22:26 UTC.
Position N 34°06' E 134°46'.

Length 108 m; draft 4 m.

Type: Passenger vessel. MMSI: 431301245.

Date/timePositionNaut miles runAvg speedWind from/ knotsBaromVisibWave heightAir tempDewpointWater temp
2015-Mar-29 19:12N 34°06' E 134°46'913.1
2015-Mar-29 18:32N 34°09' E 134°55'1211.9
2015-Mar-29 17:33N 34°13' E 135°09'0 0.0
2015-Mar-29 16:33N 34°13' E 135°09'0 0.0
2015-Mar-29 15:34N 34°13' E 135°09'7 6.6
2015-Mar-29 14:33N 34°11' E 135°01'11 3.7
2015-Mar-29 11:29N 34°06' E 134°48'1415.1
2015-Mar-29 10:33N 34°12' E 135°04'4 4.1
2015-Mar-29 09:33N 34°13' E 135°09'10 2.3
2015-Mar-29 05:21N 34°10' E 134°57'1012.5
2015-Mar-29 04:33N 34°13' E 135°09'7 6.9
2015-Mar-29 03:33N 34°10' E 135°01'6 1.9
2015-Mar-29 00:24N 34°09' E 134°54'1214.7
2015-Mar-28 23:33N 34°13' E 135°08'1 1.4
2015-Mar-28 22:33N 34°13' E 135°06'18 5.2
2015-Mar-28 19:06N 34°06' E 134°46'814.3
2015-Mar-28 18:32N 34°10' E 134°55'1211.9
2015-Mar-28 17:33N 34°13' E 135°09'0 0.0
2015-Mar-28 16:33N 34°13' E 135°09'0 0.0
2015-Mar-28 15:33N 34°13' E 135°09'6 5.6
2015-Mar-28 14:33N 34°11' E 135°02'12 3.8
2015-Mar-28 11:27N 34°07' E 134°49'1415.3
2015-Mar-28 10:33N 34°12' E 135°04'4 3.7
2015-Mar-28 09:33N 34°13' E 135°09'19 5.6
2015-Mar-28 06:04N 34°07' E 134°46'914.1
2015-Mar-28 05:25N 34°09' E 134°57'1012.1
2015-Mar-28 04:33N 34°13' E 135°09'7 6.6
2015-Mar-28 03:33N 34°11' E 135°01'10 3.2
2015-Mar-28 00:33N 34°07' E 134°50'1616.4
2015-Mar-27 23:33N 34°13' E 135°09'1 1.0
2015-Mar-27 22:33N 34°13' E 135°07'18 5.4
2015-Mar-27 19:07N 34°07' E 134°46'712.9
2015-Mar-27 18:32N 34°09' E 134°55'1212.2
2015-Mar-27 17:34N 34°13' E 135°09'0 0.0
2015-Mar-27 16:34N 34°13' E 135°09'0 0.0
2015-Mar-27 15:34N 34°13' E 135°09'7 7.1
2015-Mar-27 14:33N 34°11' E 135°00'11 3.6
2015-Mar-27 11:31N 34°06' E 134°48'1414.9
2015-Mar-27 10:33N 34°12' E 135°04'4 3.6
2015-Mar-27 09:33N 34°13' E 135°09'25 8.3
2015-Mar-27 06:32N 34°04' E 134°40'1513.5
2015-Mar-27 05:23N 34°10' E 134°58'1011.6
2015-Mar-27 04:34N 34°13' E 135°09'8 7.0
2015-Mar-27 03:28N 34°10' E 134°60'3 1.0
2015-Mar-27 00:15N 34°09' E 134°56'1014.9
2015-Mar-26 23:34N 34°13' E 135°08'1 1.3
2015-Mar-26 22:34N 34°13' E 135°06'1914.9
2015-Mar-26 21:17N 34°05' E 134°45'4 2.3
2015-Mar-26 19:30N 34°04' E 134°40'1313.8
2015-Mar-26 18:34N 34°09' E 134°55'1211.8
2015-Mar-26 17:33N 34°13' E 135°09'0 0.0
2015-Mar-26 16:33N 34°13' E 135°09'0 0.0
2015-Mar-26 15:33N 34°13' E 135°09'6 6.1
2015-Mar-26 14:34N 34°11' E 135°02'6 1.8
2015-Mar-26 11:08N 34°08' E 134°55'814.9
2015-Mar-26 10:34N 34°12' E 135°04'4 3.9
2015-Mar-26 09:34N 34°13' E 135°08'20 5.9
2015-Mar-26 06:07N 34°06' E 134°45'1014.2
2015-Mar-26 05:24N 34°09' E 134°57'1012.1
2015-Mar-26 04:33N 34°13' E 135°09'7 6.6
2015-Mar-26 03:33N 34°11' E 135°01'6 1.9
2015-Mar-26 00:23N 34°08' E 134°55'1214.8
2015-Mar-25 23:33N 34°13' E 135°08'2 1.9
2015-Mar-25 22:34N 34°13' E 135°06'18 5.5
2015-Mar-25 19:12N 34°05' E 134°45'913.4
2015-Mar-25 18:31N 34°09' E 134°56'1211.9
2015-Mar-25 17:33N 34°13' E 135°09'0 0.0
2015-Mar-25 16:33N 34°13' E 135°09'0 0.0
2015-Mar-25 15:33N 34°13' E 135°09'7 7.1
2015-Mar-25 14:33N 34°11' E 135°00'11 3.6
2015-Mar-25 11:29N 34°06' E 134°48'1415.0
2015-Mar-25 10:33N 34°12' E 135°04'4 3.6
2015-Mar-25 09:34N 34°13' E 135°08'21 6.3
2015-Mar-25 06:14N 34°05' E 134°45'1114.0
2015-Mar-25 05:27N 34°09' E 134°57'1111.8
2015-Mar-25 04:34N 34°13' E 135°09'7 6.6
2015-Mar-25 03:33N 34°11' E 135°01'5 1.5
2015-Mar-25 00:18N 34°09' E 134°56'1114.6
2015-Mar-24 23:33N 34°13' E 135°08'2 1.9
2015-Mar-24 22:33N 34°13' E 135°06'9 2.2
2015-Mar-24 18:33N 34°10' E 134°56'1111.1
2015-Mar-24 17:34N 34°13' E 135°09'0 0.0
2015-Mar-24 16:34N 34°13' E 135°09'0 0.0
2015-Mar-24 15:34N 34°13' E 135°09'7 7.0
2015-Mar-24 14:34N 34°11' E 135°01'11 3.5
2015-Mar-24 11:31N 34°07' E 134°48'1414.4
2015-Mar-24 10:33N 34°12' E 135°04'4 3.7
2015-Mar-24 09:34N 34°13' E 135°08'11 2.6
2015-Mar-24 05:31N 34°08' E 134°57'1111.2
2015-Mar-24 04:34N 34°13' E 135°09'8 7.2
2015-Mar-24 03:28N 34°11' E 134°59'5 1.7
2015-Mar-24 00:25N 34°09' E 134°54'1314.8
2015-Mar-23 23:33N 34°13' E 135°08'2 1.9
2015-Mar-23 22:33N 34°13' E 135°06'19 5.6
2015-Mar-23 19:12N 34°05' E 134°45'1014.4
2015-Mar-23 18:31N 34°09' E 134°56'1111.5
2015-Mar-23 17:33N 34°13' E 135°09'0 0.0
2015-Mar-23 16:33N 34°13' E 135°09'0 0.0
2015-Mar-23 15:34N 34°13' E 135°09'6 6.1
2015-Mar-23 14:33N 34°12' E 135°01'2 0.6
2015-Mar-23 10:33N 34°12' E 135°04'4 3.9
2015-Mar-23 09:33N 34°13' E 135°09'12 3.0
2015-Mar-23 05:33N 34°09' E 134°55'1212.2
2015-Mar-23 04:33N 34°13' E 135°09'8 7.4
2015-Mar-23 03:29N 34°11' E 134°59'5 1.5
2015-Mar-23 00:23N 34°08' E 134°55'1214.4
2015-Mar-22 23:34N 34°13' E 135°08'2 1.5
2015-Mar-22 22:33N 34°13' E 135°06'19 5.7
2015-Mar-22 19:14N 34°05' E 134°45'1013.4
2015-Mar-22 18:29N 34°09' E 134°57'1111.6
2015-Mar-22 17:33N 34°13' E 135°09'0 0.0
2015-Mar-22 16:33N 34°13' E 135°09'0 0.0
2015-Mar-22 15:33N 34°13' E 135°09'6 6.3
2015-Mar-22 14:34N 34°11' E 135°01'11 3.6
2015-Mar-22 11:26N 34°07' E 134°49'1315.2
2015-Mar-22 10:33N 34°12' E 135°04'4 4.2
2015-Mar-22 09:33N 34°13' E 135°09'12 2.9
2015-Mar-22 05:32N 34°09' E 134°55'1212.1
2015-Mar-22 04:33N 34°13' E 135°09'7 6.7
2015-Mar-22 03:32N 34°11' E 135°01'4 1.1
2015-Mar-22 00:13N 34°09' E 134°57'1015.2
2015-Mar-21 23:33N 34°13' E 135°08'2 1.8
2015-Mar-21 22:34N 34°13' E 135°06'9 2.2
2015-Mar-21 18:28N 34°09' E 134°56'1112.1
2015-Mar-21 17:33N 34°13' E 135°09'0 0.0
2015-Mar-21 16:33N 34°13' E 135°09'0 0.0
2015-Mar-21 15:33N 34°13' E 135°09'6 6.0
2015-Mar-21 14:33N 34°11' E 135°02'14 4.6
2015-Mar-21 11:33N 34°06' E 134°46'1615.9
2015-Mar-21 10:33N 34°12' E 135°04'4 4.2
2015-Mar-21 09:33N 34°13' E 135°09'21 6.1
2015-Mar-21 06:08N 34°05' E 134°45'814.0
2015-Mar-21 05:33N 34°09' E 134°54'1312.8
2015-Mar-21 04:34N 34°13' E 135°09'6 6.4
2015-Mar-21 03:33N 34°11' E 135°01'10 3.2
2015-Mar-21 00:33N 34°08' E 134°50'1615.6
2015-Mar-20 23:34N 34°13' E 135°08'2 1.7
2015-Mar-20 22:34N 34°13' E 135°06'19 5.5
2015-Mar-20 19:10N 34°06' E 134°45'914.0
2015-Mar-20 18:30N 34°09' E 134°56'1112.1
2015-Mar-20 17:34N 34°13' E 135°09'0 0.0
2015-Mar-20 16:34N 34°13' E 135°09'0 0.0
2015-Mar-20 15:33N 34°13' E 135°09'7 7.1
2015-Mar-20 14:33N 34°11' E 135°00'11 3.7
2015-Mar-20 11:31N 34°06' E 134°48'1415.1
2015-Mar-20 10:33N 34°12' E 135°04'4 3.9
2015-Mar-20 09:33N 34°13' E 135°09'10 2.5
2015-Mar-20 05:26N 34°09' E 134°57'1012.0
2015-Mar-20 04:33N 34°13' E 135°09'7 6.7
2015-Mar-20 03:33N 34°11' E 135°01'3 1.0
2015-Mar-20 00:12N 34°10' E 134°57'914.5
2015-Mar-19 23:34N 34°13' E 135°08'2 1.8
2015-Mar-19 22:33N 34°13' E 135°06'18 5.4
2015-Mar-19 19:13N 34°05' E 134°45'  
Track history (hours):
 
Tides and Currents Weather Stations Pressure Air Temp Water Temp Dewpoint Dewpoint Depression Visibility Wind Speed Wind Dir Waves Ship Positions

Ferry Katsuragi

Last reported at 2015-Mar-29 19:12 UTC. Time now 2015-Mar-29 22:26 UTC.
Position N 34°06' E 134°46'.

Length 108 m; draft 4 m.

Type: Passenger vessel. MMSI: 431301245.

Date/timePositionNaut miles runAvg speedWind from/ knotsBaromVisibWave heightAir tempDewpointWater temp
2015-Mar-29 19:12N 34°06' E 134°46'913.1
2015-Mar-29 18:32N 34°09' E 134°55'1211.9
2015-Mar-29 17:33N 34°13' E 135°09'0 0.0
2015-Mar-29 16:33N 34°13' E 135°09'0 0.0
2015-Mar-29 15:34N 34°13' E 135°09'7 6.6
2015-Mar-29 14:33N 34°11' E 135°01'11 3.7
2015-Mar-29 11:29N 34°06' E 134°48'1415.1
2015-Mar-29 10:33N 34°12' E 135°04'4 4.1
2015-Mar-29 09:33N 34°13' E 135°09'10 2.3
2015-Mar-29 05:21N 34°10' E 134°57'1012.5
2015-Mar-29 04:33N 34°13' E 135°09'7 6.9
2015-Mar-29 03:33N 34°10' E 135°01'6 1.9
2015-Mar-29 00:24N 34°09' E 134°54'1214.7
2015-Mar-28 23:33N 34°13' E 135°08'1 1.4
2015-Mar-28 22:33N 34°13' E 135°06'18 5.2
2015-Mar-28 19:06N 34°06' E 134°46'814.3
2015-Mar-28 18:32N 34°10' E 134°55'1211.9
2015-Mar-28 17:33N 34°13' E 135°09'0 0.0
2015-Mar-28 16:33N 34°13' E 135°09'0 0.0
2015-Mar-28 15:33N 34°13' E 135°09'6 5.6
2015-Mar-28 14:33N 34°11' E 135°02'12 3.8
2015-Mar-28 11:27N 34°07' E 134°49'1415.3
2015-Mar-28 10:33N 34°12' E 135°04'4 3.7
2015-Mar-28 09:33N 34°13' E 135°09'19 5.6
2015-Mar-28 06:04N 34°07' E 134°46'914.1
2015-Mar-28 05:25N 34°09' E 134°57'1012.1
2015-Mar-28 04:33N 34°13' E 135°09'7 6.6
2015-Mar-28 03:33N 34°11' E 135°01'10 3.2
2015-Mar-28 00:33N 34°07' E 134°50'1616.4
2015-Mar-27 23:33N 34°13' E 135°09'1 1.0
2015-Mar-27 22:33N 34°13' E 135°07'18 5.4
2015-Mar-27 19:07N 34°07' E 134°46'712.9
2015-Mar-27 18:32N 34°09' E 134°55'1212.2
2015-Mar-27 17:34N 34°13' E 135°09'0 0.0
2015-Mar-27 16:34N 34°13' E 135°09'0 0.0
2015-Mar-27 15:34N 34°13' E 135°09'7 7.1
2015-Mar-27 14:33N 34°11' E 135°00'11 3.6
2015-Mar-27 11:31N 34°06' E 134°48'1414.9
2015-Mar-27 10:33N 34°12' E 135°04'4 3.6
2015-Mar-27 09:33N 34°13' E 135°09'25 8.3
2015-Mar-27 06:32N 34°04' E 134°40'1513.5
2015-Mar-27 05:23N 34°10' E 134°58'1011.6
2015-Mar-27 04:34N 34°13' E 135°09'8 7.0
2015-Mar-27 03:28N 34°10' E 134°60'3 1.0
2015-Mar-27 00:15N 34°09' E 134°56'1014.9
2015-Mar-26 23:34N 34°13' E 135°08'1 1.3
2015-Mar-26 22:34N 34°13' E 135°06'1914.9
2015-Mar-26 21:17N 34°05' E 134°45'4 2.3
2015-Mar-26 19:30N 34°04' E 134°40'1313.8
2015-Mar-26 18:34N 34°09' E 134°55'1211.8
2015-Mar-26 17:33N 34°13' E 135°09'0 0.0
2015-Mar-26 16:33N 34°13' E 135°09'0 0.0
2015-Mar-26 15:33N 34°13' E 135°09'6 6.1
2015-Mar-26 14:34N 34°11' E 135°02'6 1.8
2015-Mar-26 11:08N 34°08' E 134°55'814.9
2015-Mar-26 10:34N 34°12' E 135°04'4 3.9
2015-Mar-26 09:34N 34°13' E 135°08'20 5.9
2015-Mar-26 06:07N 34°06' E 134°45'1014.2
2015-Mar-26 05:24N 34°09' E 134°57'1012.1
2015-Mar-26 04:33N 34°13' E 135°09'7 6.6
2015-Mar-26 03:33N 34°11' E 135°01'6 1.9
2015-Mar-26 00:23N 34°08' E 134°55'1214.8
2015-Mar-25 23:33N 34°13' E 135°08'2 1.9
2015-Mar-25 22:34N 34°13' E 135°06'18 5.5
2015-Mar-25 19:12N 34°05' E 134°45'913.4
2015-Mar-25 18:31N 34°09' E 134°56'1211.9
2015-Mar-25 17:33N 34°13' E 135°09'0 0.0
2015-Mar-25 16:33N 34°13' E 135°09'0 0.0
2015-Mar-25 15:33N 34°13' E 135°09'7 7.1
2015-Mar-25 14:33N 34°11' E 135°00'11 3.6
2015-Mar-25 11:29N 34°06' E 134°48'1415.0
2015-Mar-25 10:33N 34°12' E 135°04'4 3.6
2015-Mar-25 09:34N 34°13' E 135°08'21 6.3
2015-Mar-25 06:14N 34°05' E 134°45'1114.0
2015-Mar-25 05:27N 34°09' E 134°57'1111.8
2015-Mar-25 04:34N 34°13' E 135°09'7 6.6
2015-Mar-25 03:33N 34°11' E 135°01'5 1.5
2015-Mar-25 00:18N 34°09' E 134°56'1114.6
2015-Mar-24 23:33N 34°13' E 135°08'2 1.9
2015-Mar-24 22:33N 34°13' E 135°06'9 2.2
2015-Mar-24 18:33N 34°10' E 134°56'1111.1
2015-Mar-24 17:34N 34°13' E 135°09'0 0.0
2015-Mar-24 16:34N 34°13' E 135°09'0 0.0
2015-Mar-24 15:34N 34°13' E 135°09'7 7.0
2015-Mar-24 14:34N 34°11' E 135°01'11 3.5
2015-Mar-24 11:31N 34°07' E 134°48'1414.4
2015-Mar-24 10:33N 34°12' E 135°04'4 3.7
2015-Mar-24 09:34N 34°13' E 135°08'11 2.6
2015-Mar-24 05:31N 34°08' E 134°57'1111.2
2015-Mar-24 04:34N 34°13' E 135°09'8 7.2
2015-Mar-24 03:28N 34°11' E 134°59'5 1.7
2015-Mar-24 00:25N 34°09' E 134°54'1314.8
2015-Mar-23 23:33N 34°13' E 135°08'2 1.9
2015-Mar-23 22:33N 34°13' E 135°06'19 5.6
2015-Mar-23 19:12N 34°05' E 134°45'1014.4
2015-Mar-23 18:31N 34°09' E 134°56'1111.5
2015-Mar-23 17:33N 34°13' E 135°09'0 0.0
2015-Mar-23 16:33N 34°13' E 135°09'0 0.0
2015-Mar-23 15:34N 34°13' E 135°09'6 6.1
2015-Mar-23 14:33N 34°12' E 135°01'2 0.6
2015-Mar-23 10:33N 34°12' E 135°04'4 3.9
2015-Mar-23 09:33N 34°13' E 135°09'12 3.0
2015-Mar-23 05:33N 34°09' E 134°55'1212.2
2015-Mar-23 04:33N 34°13' E 135°09'8 7.4
2015-Mar-23 03:29N 34°11' E 134°59'5 1.5
2015-Mar-23 00:23N 34°08' E 134°55'1214.4
2015-Mar-22 23:34N 34°13' E 135°08'2 1.5
2015-Mar-22 22:33N 34°13' E 135°06'19 5.7
2015-Mar-22 19:14N 34°05' E 134°45'1013.4
2015-Mar-22 18:29N 34°09' E 134°57'1111.6
2015-Mar-22 17:33N 34°13' E 135°09'0 0.0
2015-Mar-22 16:33N 34°13' E 135°09'0 0.0
2015-Mar-22 15:33N 34°13' E 135°09'6 6.3
2015-Mar-22 14:34N 34°11' E 135°01'11 3.6
2015-Mar-22 11:26N 34°07' E 134°49'1315.2
2015-Mar-22 10:33N 34°12' E 135°04'4 4.2
2015-Mar-22 09:33N 34°13' E 135°09'12 2.9
2015-Mar-22 05:32N 34°09' E 134°55'1212.1
2015-Mar-22 04:33N 34°13' E 135°09'7 6.7
2015-Mar-22 03:32N 34°11' E 135°01'4 1.1
2015-Mar-22 00:13N 34°09' E 134°57'1015.2
2015-Mar-21 23:33N 34°13' E 135°08'2 1.8
2015-Mar-21 22:34N 34°13' E 135°06'9 2.2
2015-Mar-21 18:28N 34°09' E 134°56'1112.1
2015-Mar-21 17:33N 34°13' E 135°09'0 0.0
2015-Mar-21 16:33N 34°13' E 135°09'0 0.0
2015-Mar-21 15:33N 34°13' E 135°09'6 6.0
2015-Mar-21 14:33N 34°11' E 135°02'14 4.6
2015-Mar-21 11:33N 34°06' E 134°46'1615.9
2015-Mar-21 10:33N 34°12' E 135°04'4 4.2
2015-Mar-21 09:33N 34°13' E 135°09'21 6.1
2015-Mar-21 06:08N 34°05' E 134°45'814.0
2015-Mar-21 05:33N 34°09' E 134°54'1312.8
2015-Mar-21 04:34N 34°13' E 135°09'6 6.4
2015-Mar-21 03:33N 34°11' E 135°01'10 3.2
2015-Mar-21 00:33N 34°08' E 134°50'1615.6
2015-Mar-20 23:34N 34°13' E 135°08'2 1.7
2015-Mar-20 22:34N 34°13' E 135°06'19 5.5
2015-Mar-20 19:10N 34°06' E 134°45'914.0
2015-Mar-20 18:30N 34°09' E 134°56'1112.1
2015-Mar-20 17:34N 34°13' E 135°09'0 0.0
2015-Mar-20 16:34N 34°13' E 135°09'0 0.0
2015-Mar-20 15:33N 34°13' E 135°09'7 7.1
2015-Mar-20 14:33N 34°11' E 135°00'11 3.7
2015-Mar-20 11:31N 34°06' E 134°48'1415.1
2015-Mar-20 10:33N 34°12' E 135°04'4 3.9
2015-Mar-20 09:33N 34°13' E 135°09'10 2.5
2015-Mar-20 05:26N 34°09' E 134°57'1012.0
2015-Mar-20 04:33N 34°13' E 135°09'7 6.7
2015-Mar-20 03:33N 34°11' E 135°01'3 1.0
2015-Mar-20 00:12N 34°10' E 134°57'914.5
2015-Mar-19 23:34N 34°13' E 135°08'2 1.8
2015-Mar-19 22:33N 34°13' E 135°06'18 5.4
2015-Mar-19 19:13N 34°05' E 134°45'  

Dump ship's entire track history